sensor_id;sensor_type;location;lat;lon;timestamp;P1;durP1;ratioP1;P2;durP2;ratioP2
23617;SDS011;18207;32.078;34.818;2022-11-18T00:00:32;2.45;;;2.20;;
23617;SDS011;18207;32.078;34.818;2022-11-18T00:03:02;2.13;;;2.03;;
23617;SDS011;18207;32.078;34.818;2022-11-18T00:05:32;2.47;;;2.28;;
23617;SDS011;18207;32.078;34.818;2022-11-18T00:08:03;2.30;;;2.10;;
23617;SDS011;18207;32.078;34.818;2022-11-18T00:10:37;1.90;;;1.80;;
23617;SDS011;18207;32.078;34.818;2022-11-18T00:13:09;2.03;;;1.92;;
23617;SDS011;18207;32.078;34.818;2022-11-18T00:16:00;1.98;;;1.88;;
23617;SDS011;18207;32.078;34.818;2022-11-18T00:18:30;2.13;;;1.95;;
23617;SDS011;18207;32.078;34.818;2022-11-18T00:21:01;2.05;;;1.95;;
23617;SDS011;18207;32.078;34.818;2022-11-18T00:23:33;2.55;;;2.30;;
23617;SDS011;18207;32.078;34.818;2022-11-18T00:26:05;2.40;;;2.20;;
23617;SDS011;18207;32.078;34.818;2022-11-18T00:28:38;2.50;;;2.33;;
23617;SDS011;18207;32.078;34.818;2022-11-18T00:31:11;2.60;;;2.40;;
23617;SDS011;18207;32.078;34.818;2022-11-18T00:33:42;2.85;;;2.50;;
23617;SDS011;18207;32.078;34.818;2022-11-18T00:36:13;2.10;;;1.90;;
23617;SDS011;18207;32.078;34.818;2022-11-18T00:38:44;2.30;;;2.20;;
23617;SDS011;18207;32.078;34.818;2022-11-18T00:41:15;2.30;;;2.10;;
23617;SDS011;18207;32.078;34.818;2022-11-18T00:43:45;2.83;;;2.22;;
23617;SDS011;18207;32.078;34.818;2022-11-18T00:46:16;2.03;;;1.92;;
23617;SDS011;18207;32.078;34.818;2022-11-18T00:48:46;2.10;;;2.00;;
23617;SDS011;18207;32.078;34.818;2022-11-18T00:51:17;2.25;;;2.05;;
23617;SDS011;18207;32.078;34.818;2022-11-18T00:53:47;2.42;;;2.10;;
23617;SDS011;18207;32.078;34.818;2022-11-18T00:56:18;2.17;;;2.05;;
23617;SDS011;18207;32.078;34.818;2022-11-18T00:58:48;3.33;;;2.10;;
23617;SDS011;18207;32.078;34.818;2022-11-18T01:01:22;2.20;;;2.08;;
23617;SDS011;18207;32.078;34.818;2022-11-18T01:03:53;2.33;;;2.10;;
23617;SDS011;18207;32.078;34.818;2022-11-18T01:06:24;2.30;;;2.10;;
23617;SDS011;18207;32.078;34.818;2022-11-18T01:08:54;2.25;;;2.05;;
23617;SDS011;18207;32.078;34.818;2022-11-18T01:11:25;2.53;;;2.33;;
23617;SDS011;18207;32.078;34.818;2022-11-18T01:14:12;2.30;;;2.10;;
23617;SDS011;18207;32.078;34.818;2022-11-18T01:16:45;2.45;;;2.17;;
23617;SDS011;18207;32.078;34.818;2022-11-18T01:19:17;2.50;;;2.25;;
23617;SDS011;18207;32.078;34.818;2022-11-18T01:21:48;2.33;;;2.13;;
23617;SDS011;18207;32.078;34.818;2022-11-18T01:24:19;2.70;;;2.50;;
23617;SDS011;18207;32.078;34.818;2022-11-18T01:26:50;2.20;;;2.00;;
23617;SDS011;18207;32.078;34.818;2022-11-18T01:29:20;2.40;;;2.20;;
23617;SDS011;18207;32.078;34.818;2022-11-18T01:32:02;2.53;;;2.25;;
23617;SDS011;18207;32.078;34.818;2022-11-18T01:34:50;2.50;;;2.30;;
23617;SDS011;18207;32.078;34.818;2022-11-18T01:37:21;2.72;;;2.40;;
23617;SDS011;18207;32.078;34.818;2022-11-18T01:39:52;2.70;;;2.33;;
23617;SDS011;18207;32.078;34.818;2022-11-18T01:42:22;2.38;;;2.17;;
23617;SDS011;18207;32.078;34.818;2022-11-18T01:44:57;2.47;;;2.28;;
23617;SDS011;18207;32.078;34.818;2022-11-18T01:47:39;2.63;;;2.42;;
23617;SDS011;18207;32.078;34.818;2022-11-18T01:50:17;2.78;;;2.47;;
23617;SDS011;18207;32.078;34.818;2022-11-18T01:52:51;2.83;;;2.55;;
23617;SDS011;18207;32.078;34.818;2022-11-18T01:55:34;2.67;;;2.47;;
23617;SDS011;18207;32.078;34.818;2022-11-18T01:58:15;2.50;;;2.30;;
23617;SDS011;18207;32.078;34.818;2022-11-18T02:00:55;2.40;;;2.20;;
23617;SDS011;18207;32.078;34.818;2022-11-18T02:03:28;3.92;;;2.83;;
23617;SDS011;18207;32.078;34.818;2022-11-18T02:06:00;2.90;;;2.55;;
23617;SDS011;18207;32.078;34.818;2022-11-18T02:08:33;2.42;;;2.22;;
23617;SDS011;18207;32.078;34.818;2022-11-18T02:11:07;2.80;;;2.60;;
23617;SDS011;18207;32.078;34.818;2022-11-18T02:14:02;2.53;;;2.33;;
23617;SDS011;18207;32.078;34.818;2022-11-18T02:16:40;2.30;;;2.10;;
23617;SDS011;18207;32.078;34.818;2022-11-18T02:19:37;2.42;;;2.22;;
23617;SDS011;18207;32.078;34.818;2022-11-18T02:22:34;3.33;;;2.45;;
23617;SDS011;18207;32.078;34.818;2022-11-18T02:25:29;2.20;;;2.10;;
23617;SDS011;18207;32.078;34.818;2022-11-18T02:28:21;2.90;;;2.42;;
23617;SDS011;18207;32.078;34.818;2022-11-18T02:31:09;2.50;;;2.30;;
23617;SDS011;18207;32.078;34.818;2022-11-18T02:33:47;2.30;;;2.10;;
23617;SDS011;18207;32.078;34.818;2022-11-18T02:36:24;2.85;;;2.40;;
23617;SDS011;18207;32.078;34.818;2022-11-18T02:39:04;2.50;;;2.30;;
23617;SDS011;18207;32.078;34.818;2022-11-18T02:41:45;2.60;;;2.40;;
23617;SDS011;18207;32.078;34.818;2022-11-18T02:44:19;2.35;;;2.13;;
23617;SDS011;18207;32.078;34.818;2022-11-18T02:46:56;2.70;;;2.42;;
23617;SDS011;18207;32.078;34.818;2022-11-18T02:49:33;2.53;;;2.33;;
23617;SDS011;18207;32.078;34.818;2022-11-18T02:52:08;2.55;;;2.28;;
23617;SDS011;18207;32.078;34.818;2022-11-18T02:54:41;3.03;;;2.53;;
23617;SDS011;18207;32.078;34.818;2022-11-18T02:57:16;2.65;;;2.45;;
23617;SDS011;18207;32.078;34.818;2022-11-18T02:59:51;2.75;;;2.50;;
23617;SDS011;18207;32.078;34.818;2022-11-18T03:02:22;3.17;;;2.88;;
23617;SDS011;18207;32.078;34.818;2022-11-18T03:04:54;2.90;;;2.63;;
23617;SDS011;18207;32.078;34.818;2022-11-18T03:07:26;3.67;;;2.70;;
23617;SDS011;18207;32.078;34.818;2022-11-18T03:10:03;3.38;;;2.63;;
23617;SDS011;18207;32.078;34.818;2022-11-18T03:12:35;3.08;;;2.50;;
23617;SDS011;18207;32.078;34.818;2022-11-18T03:15:21;2.85;;;2.65;;
23617;SDS011;18207;32.078;34.818;2022-11-18T03:18:11;3.30;;;2.72;;
23617;SDS011;18207;32.078;34.818;2022-11-18T03:20:57;3.05;;;2.60;;
23617;SDS011;18207;32.078;34.818;2022-11-18T03:23:37;3.10;;;2.50;;
23617;SDS011;18207;32.078;34.818;2022-11-18T03:26:12;2.80;;;2.60;;
23617;SDS011;18207;32.078;34.818;2022-11-18T03:28:54;2.60;;;2.40;;
23617;SDS011;18207;32.078;34.818;2022-11-18T03:31:32;2.65;;;2.45;;
23617;SDS011;18207;32.078;34.818;2022-11-18T03:34:11;2.60;;;2.40;;
23617;SDS011;18207;32.078;34.818;2022-11-18T03:36:49;3.40;;;2.35;;
23617;SDS011;18207;32.078;34.818;2022-11-18T03:39:26;3.08;;;2.78;;
23617;SDS011;18207;32.078;34.818;2022-11-18T03:42:03;2.90;;;2.70;;
23617;SDS011;18207;32.078;34.818;2022-11-18T03:44:41;2.65;;;2.45;;
23617;SDS011;18207;32.078;34.818;2022-11-18T03:47:19;2.92;;;2.67;;
23617;SDS011;18207;32.078;34.818;2022-11-18T03:50:00;2.85;;;2.33;;
23617;SDS011;18207;32.078;34.818;2022-11-18T03:52:40;2.55;;;2.35;;
23617;SDS011;18207;32.078;34.818;2022-11-18T03:55:15;2.80;;;2.60;;
23617;SDS011;18207;32.078;34.818;2022-11-18T03:57:53;2.80;;;2.55;;
23617;SDS011;18207;32.078;34.818;2022-11-18T04:00:32;2.90;;;2.70;;
23617;SDS011;18207;32.078;34.818;2022-11-18T04:03:10;2.33;;;2.08;;
23617;SDS011;18207;32.078;34.818;2022-11-18T04:05:43;2.80;;;2.38;;
23617;SDS011;18207;32.078;34.818;2022-11-18T04:08:18;2.88;;;2.50;;
23617;SDS011;18207;32.078;34.818;2022-11-18T04:10:57;2.38;;;2.17;;
23617;SDS011;18207;32.078;34.818;2022-11-18T04:13:57;2.85;;;2.55;;
23617;SDS011;18207;32.078;34.818;2022-11-18T04:16:28;2.55;;;2.35;;
23617;SDS011;18207;32.078;34.818;2022-11-18T04:18:59;3.08;;;2.53;;
23617;SDS011;18207;32.078;34.818;2022-11-18T04:21:33;2.70;;;2.50;;
23617;SDS011;18207;32.078;34.818;2022-11-18T04:24:03;3.00;;;2.70;;
23617;SDS011;18207;32.078;34.818;2022-11-18T04:26:34;3.05;;;2.75;;
23617;SDS011;18207;32.078;34.818;2022-11-18T04:29:04;3.30;;;2.65;;
23617;SDS011;18207;32.078;34.818;2022-11-18T04:31:34;2.70;;;2.50;;
23617;SDS011;18207;32.078;34.818;2022-11-18T04:34:05;2.75;;;2.55;;
23617;SDS011;18207;32.078;34.818;2022-11-18T04:36:36;3.55;;;2.45;;
23617;SDS011;18207;32.078;34.818;2022-11-18T04:39:07;3.00;;;2.65;;
23617;SDS011;18207;32.078;34.818;2022-11-18T04:41:38;2.50;;;2.30;;
23617;SDS011;18207;32.078;34.818;2022-11-18T04:44:24;2.67;;;2.33;;
23617;SDS011;18207;32.078;34.818;2022-11-18T04:46:57;3.00;;;2.53;;
23617;SDS011;18207;32.078;34.818;2022-11-18T04:49:29;2.35;;;2.15;;
23617;SDS011;18207;32.078;34.818;2022-11-18T04:52:03;2.33;;;2.13;;
23617;SDS011;18207;32.078;34.818;2022-11-18T04:54:34;2.45;;;2.25;;
23617;SDS011;18207;32.078;34.818;2022-11-18T04:57:04;2.35;;;2.17;;
23617;SDS011;18207;32.078;34.818;2022-11-18T04:59:35;2.10;;;2.00;;
23617;SDS011;18207;32.078;34.818;2022-11-18T05:02:06;2.25;;;2.10;;
23617;SDS011;18207;32.078;34.818;2022-11-18T05:04:37;2.20;;;2.00;;
23617;SDS011;18207;32.078;34.818;2022-11-18T05:07:13;2.20;;;2.00;;
23617;SDS011;18207;32.078;34.818;2022-11-18T05:09:46;1.92;;;1.83;;
23617;SDS011;18207;32.078;34.818;2022-11-18T05:12:16;2.10;;;2.00;;
23617;SDS011;18207;32.078;34.818;2022-11-18T05:15:03;2.00;;;1.90;;
23617;SDS011;18207;32.078;34.818;2022-11-18T05:17:35;2.13;;;1.92;;
23617;SDS011;18207;32.078;34.818;2022-11-18T05:20:06;2.28;;;2.08;;
23617;SDS011;18207;32.078;34.818;2022-11-18T05:22:39;2.40;;;2.20;;
23617;SDS011;18207;32.078;34.818;2022-11-18T05:25:09;2.13;;;1.92;;
23617;SDS011;18207;32.078;34.818;2022-11-18T05:27:40;1.95;;;1.85;;
23617;SDS011;18207;32.078;34.818;2022-11-18T05:30:10;2.47;;;2.05;;
23617;SDS011;18207;32.078;34.818;2022-11-18T05:32:42;2.53;;;1.80;;
23617;SDS011;18207;32.078;34.818;2022-11-18T05:35:13;2.05;;;1.85;;
23617;SDS011;18207;32.078;34.818;2022-11-18T05:37:45;1.75;;;1.65;;
23617;SDS011;18207;32.078;34.818;2022-11-18T05:40:16;2.08;;;1.98;;
23617;SDS011;18207;32.078;34.818;2022-11-18T05:42:47;1.88;;;1.77;;
23617;SDS011;18207;32.078;34.818;2022-11-18T05:45:34;1.80;;;1.70;;
23617;SDS011;18207;32.078;34.818;2022-11-18T05:48:05;1.67;;;1.58;;
23617;SDS011;18207;32.078;34.818;2022-11-18T05:50:36;1.90;;;1.80;;
23617;SDS011;18207;32.078;34.818;2022-11-18T05:53:09;1.95;;;1.85;;
23617;SDS011;18207;32.078;34.818;2022-11-18T05:55:39;1.95;;;1.60;;
23617;SDS011;18207;32.078;34.818;2022-11-18T05:58:17;1.88;;;1.77;;
23617;SDS011;18207;32.078;34.818;2022-11-18T06:00:49;1.95;;;1.70;;
23617;SDS011;18207;32.078;34.818;2022-11-18T06:03:24;2.17;;;1.98;;
23617;SDS011;18207;32.078;34.818;2022-11-18T06:06:00;2.00;;;1.80;;
23617;SDS011;18207;32.078;34.818;2022-11-18T06:08:35;1.70;;;1.60;;
23617;SDS011;18207;32.078;34.818;2022-11-18T06:11:13;1.75;;;1.65;;
23617;SDS011;18207;32.078;34.818;2022-11-18T06:13:47;2.00;;;1.80;;
23617;SDS011;18207;32.078;34.818;2022-11-18T06:16:23;1.90;;;1.73;;
23617;SDS011;18207;32.078;34.818;2022-11-18T06:19:06;1.70;;;1.60;;
23617;SDS011;18207;32.078;34.818;2022-11-18T06:21:36;1.55;;;1.45;;
23617;SDS011;18207;32.078;34.818;2022-11-18T06:24:09;2.35;;;1.60;;
23617;SDS011;18207;32.078;34.818;2022-11-18T06:26:41;1.83;;;1.70;;
23617;SDS011;18207;32.078;34.818;2022-11-18T06:29:13;1.77;;;1.67;;
23617;SDS011;18207;32.078;34.818;2022-11-18T06:31:53;1.40;;;1.30;;
23617;SDS011;18207;32.078;34.818;2022-11-18T06:34:23;1.80;;;1.70;;
23617;SDS011;18207;32.078;34.818;2022-11-18T06:36:54;1.65;;;1.55;;
23617;SDS011;18207;32.078;34.818;2022-11-18T06:39:26;1.25;;;1.25;;
23617;SDS011;18207;32.078;34.818;2022-11-18T06:41:56;1.60;;;1.50;;
23617;SDS011;18207;32.078;34.818;2022-11-18T06:44:26;1.60;;;1.50;;
23617;SDS011;18207;32.078;34.818;2022-11-18T06:46:55;1.77;;;1.55;;
23617;SDS011;18207;32.078;34.818;2022-11-18T06:49:28;1.90;;;1.80;;
23617;SDS011;18207;32.078;34.818;2022-11-18T06:51:59;2.00;;;1.75;;
23617;SDS011;18207;32.078;34.818;2022-11-18T06:54:31;1.77;;;1.67;;
23617;SDS011;18207;32.078;34.818;2022-11-18T06:57:02;1.95;;;1.85;;
23617;SDS011;18207;32.078;34.818;2022-11-18T06:59:32;1.63;;;1.52;;
23617;SDS011;18207;32.078;34.818;2022-11-18T07:02:03;1.50;;;1.40;;
23617;SDS011;18207;32.078;34.818;2022-11-18T07:04:34;1.40;;;1.30;;
23617;SDS011;18207;32.078;34.818;2022-11-18T07:07:06;1.25;;;1.15;;
23617;SDS011;18207;32.078;34.818;2022-11-18T07:09:39;1.15;;;1.15;;
23617;SDS011;18207;32.078;34.818;2022-11-18T07:12:10;1.75;;;1.65;;
23617;SDS011;18207;32.078;34.818;2022-11-18T07:14:41;1.05;;;1.05;;
23617;SDS011;18207;32.078;34.818;2022-11-18T07:17:11;1.25;;;1.10;;
23617;SDS011;18207;32.078;34.818;2022-11-18T07:19:42;1.30;;;1.20;;
23617;SDS011;18207;32.078;34.818;2022-11-18T07:22:12;1.02;;;1.02;;
23617;SDS011;18207;32.078;34.818;2022-11-18T07:24:45;0.93;;;0.93;;
23617;SDS011;18207;32.078;34.818;2022-11-18T07:27:15;1.25;;;1.15;;
23617;SDS011;18207;32.078;34.818;2022-11-18T07:29:46;1.25;;;1.15;;
23617;SDS011;18207;32.078;34.818;2022-11-18T07:32:16;1.05;;;1.05;;
23617;SDS011;18207;32.078;34.818;2022-11-18T07:34:47;1.02;;;1.02;;
23617;SDS011;18207;32.078;34.818;2022-11-18T07:37:17;1.20;;;1.02;;
23617;SDS011;18207;32.078;34.818;2022-11-18T07:39:50;1.10;;;1.10;;
23617;SDS011;18207;32.078;34.818;2022-11-18T07:42:21;0.65;;;0.65;;
23617;SDS011;18207;32.078;34.818;2022-11-18T07:44:51;0.95;;;0.90;;
23617;SDS011;18207;32.078;34.818;2022-11-18T07:47:22;0.70;;;0.70;;
23617;SDS011;18207;32.078;34.818;2022-11-18T07:49:52;0.70;;;0.70;;
23617;SDS011;18207;32.078;34.818;2022-11-18T07:52:22;0.88;;;0.88;;
23617;SDS011;18207;32.078;34.818;2022-11-18T07:54:56;0.85;;;0.85;;
23617;SDS011;18207;32.078;34.818;2022-11-18T07:57:26;0.90;;;0.90;;
23617;SDS011;18207;32.078;34.818;2022-11-18T07:59:56;0.70;;;0.70;;
23617;SDS011;18207;32.078;34.818;2022-11-18T08:02:26;0.88;;;0.80;;
23617;SDS011;18207;32.078;34.818;2022-11-18T08:04:56;0.80;;;0.80;;
23617;SDS011;18207;32.078;34.818;2022-11-18T08:07:27;0.70;;;0.70;;
23617;SDS011;18207;32.078;34.818;2022-11-18T08:09:59;0.60;;;0.60;;
23617;SDS011;18207;32.078;34.818;2022-11-18T08:12:31;0.55;;;0.55;;
23617;SDS011;18207;32.078;34.818;2022-11-18T08:15:01;0.40;;;0.40;;
23617;SDS011;18207;32.078;34.818;2022-11-18T08:17:32;0.60;;;0.60;;
23617;SDS011;18207;32.078;34.818;2022-11-18T08:20:03;0.60;;;0.60;;
23617;SDS011;18207;32.078;34.818;2022-11-18T08:22:34;0.75;;;0.75;;
23617;SDS011;18207;32.078;34.818;2022-11-18T08:25:09;0.77;;;0.77;;
23617;SDS011;18207;32.078;34.818;2022-11-18T08:27:39;0.80;;;0.80;;
23617;SDS011;18207;32.078;34.818;2022-11-18T08:30:11;0.80;;;0.80;;
23617;SDS011;18207;32.078;34.818;2022-11-18T08:32:42;0.57;;;0.57;;
23617;SDS011;18207;32.078;34.818;2022-11-18T08:35:13;0.57;;;0.57;;
23617;SDS011;18207;32.078;34.818;2022-11-18T08:37:44;0.70;;;0.70;;
23617;SDS011;18207;32.078;34.818;2022-11-18T08:40:17;0.70;;;0.70;;
23617;SDS011;18207;32.078;34.818;2022-11-18T08:42:48;0.70;;;0.70;;
23617;SDS011;18207;32.078;34.818;2022-11-18T08:45:19;0.63;;;0.63;;
23617;SDS011;18207;32.078;34.818;2022-11-18T08:47:50;0.55;;;0.55;;
23617;SDS011;18207;32.078;34.818;2022-11-18T08:50:21;0.65;;;0.65;;
23617;SDS011;18207;32.078;34.818;2022-11-18T08:52:52;0.80;;;0.80;;
23617;SDS011;18207;32.078;34.818;2022-11-18T08:55:25;0.90;;;0.90;;
23617;SDS011;18207;32.078;34.818;2022-11-18T08:57:55;0.90;;;0.90;;
23617;SDS011;18207;32.078;34.818;2022-11-18T09:00:25;0.82;;;0.82;;
23617;SDS011;18207;32.078;34.818;2022-11-18T09:02:56;0.73;;;0.73;;
23617;SDS011;18207;32.078;34.818;2022-11-18T09:05:27;0.80;;;0.80;;
23617;SDS011;18207;32.078;34.818;2022-11-18T09:07:58;0.93;;;0.93;;
23617;SDS011;18207;32.078;34.818;2022-11-18T09:10:30;0.50;;;0.50;;
23617;SDS011;18207;32.078;34.818;2022-11-18T09:13:00;0.85;;;0.82;;
23617;SDS011;18207;32.078;34.818;2022-11-18T09:15:51;0.90;;;0.90;;
23617;SDS011;18207;32.078;34.818;2022-11-18T09:18:23;1.42;;;1.00;;
23617;SDS011;18207;32.078;34.818;2022-11-18T09:20:54;0.70;;;0.70;;
23617;SDS011;18207;32.078;34.818;2022-11-18T09:23:25;1.00;;;1.00;;
23617;SDS011;18207;32.078;34.818;2022-11-18T09:25:58;0.93;;;0.93;;
23617;SDS011;18207;32.078;34.818;2022-11-18T09:28:30;1.00;;;1.00;;
23617;SDS011;18207;32.078;34.818;2022-11-18T09:31:02;0.88;;;0.88;;
23617;SDS011;18207;32.078;34.818;2022-11-18T09:33:36;0.80;;;0.80;;
23617;SDS011;18207;32.078;34.818;2022-11-18T09:36:10;0.88;;;0.88;;
23617;SDS011;18207;32.078;34.818;2022-11-18T09:38:44;0.75;;;0.75;;
23617;SDS011;18207;32.078;34.818;2022-11-18T09:47:21;0.95;;;0.88;;
23617;SDS011;18207;32.078;34.818;2022-11-18T09:49:57;0.82;;;0.82;;
23617;SDS011;18207;32.078;34.818;2022-11-18T09:52:58;0.90;;;0.90;;
23617;SDS011;18207;32.078;34.818;2022-11-18T09:55:43;1.90;;;0.90;;
23617;SDS011;18207;32.078;34.818;2022-11-18T09:58:20;0.75;;;0.75;;
23617;SDS011;18207;32.078;34.818;2022-11-18T10:00:59;0.80;;;0.80;;
23617;SDS011;18207;32.078;34.818;2022-11-18T10:03:32;0.70;;;0.70;;
23617;SDS011;18207;32.078;34.818;2022-11-18T10:06:03;0.77;;;0.77;;
23617;SDS011;18207;32.078;34.818;2022-11-18T10:08:54;0.68;;;0.68;;
23617;SDS011;18207;32.078;34.818;2022-11-18T10:11:45;0.80;;;0.80;;
23617;SDS011;18207;32.078;34.818;2022-11-18T10:14:37;0.65;;;0.65;;
23617;SDS011;18207;32.078;34.818;2022-11-18T10:17:28;0.80;;;0.80;;
23617;SDS011;18207;32.078;34.818;2022-11-18T10:20:17;0.80;;;0.80;;
23617;SDS011;18207;32.078;34.818;2022-11-18T10:23:02;0.70;;;0.70;;
23617;SDS011;18207;32.078;34.818;2022-11-18T10:25:41;0.80;;;0.80;;
23617;SDS011;18207;32.078;34.818;2022-11-18T10:28:14;0.93;;;0.93;;
23617;SDS011;18207;32.078;34.818;2022-11-18T10:30:52;1.05;;;1.02;;
23617;SDS011;18207;32.078;34.818;2022-11-18T10:33:30;0.88;;;0.88;;
23617;SDS011;18207;32.078;34.818;2022-11-18T10:36:18;0.65;;;0.65;;
23617;SDS011;18207;32.078;34.818;2022-11-18T10:41:52;0.98;;;0.95;;
23617;SDS011;18207;32.078;34.818;2022-11-18T10:44:32;1.30;;;0.85;;
23617;SDS011;18207;32.078;34.818;2022-11-18T10:47:20;0.85;;;0.85;;
23617;SDS011;18207;32.078;34.818;2022-11-18T10:49:59;0.80;;;0.80;;
23617;SDS011;18207;32.078;34.818;2022-11-18T10:53:00;1.80;;;0.80;;
23617;SDS011;18207;32.078;34.818;2022-11-18T10:55:32;0.80;;;0.80;;
23617;SDS011;18207;32.078;34.818;2022-11-18T10:58:07;0.68;;;0.68;;
23617;SDS011;18207;32.078;34.818;2022-11-18T11:00:45;0.93;;;0.93;;
23617;SDS011;18207;32.078;34.818;2022-11-18T11:03:25;0.70;;;0.70;;
23617;SDS011;18207;32.078;34.818;2022-11-18T11:06:27;0.93;;;0.93;;
23617;SDS011;18207;32.078;34.818;2022-11-18T11:09:05;0.88;;;0.88;;
23617;SDS011;18207;32.078;34.818;2022-11-18T11:11:40;0.93;;;0.93;;
23617;SDS011;18207;32.078;34.818;2022-11-18T11:14:25;1.00;;;1.00;;
23617;SDS011;18207;32.078;34.818;2022-11-18T11:17:08;1.05;;;0.90;;
23617;SDS011;18207;32.078;34.818;2022-11-18T11:19:47;0.93;;;0.93;;
23617;SDS011;18207;32.078;34.818;2022-11-18T11:22:27;1.00;;;1.00;;
23617;SDS011;18207;32.078;34.818;2022-11-18T11:24:57;1.02;;;1.02;;
23617;SDS011;18207;32.078;34.818;2022-11-18T11:30:39;0.90;;;0.90;;
23617;SDS011;18207;32.078;34.818;2022-11-18T11:33:28;0.98;;;0.90;;
23617;SDS011;18207;32.078;34.818;2022-11-18T11:36:18;0.85;;;0.85;;
23617;SDS011;18207;32.078;34.818;2022-11-18T11:39:16;1.10;;;1.10;;
23617;SDS011;18207;32.078;34.818;2022-11-18T11:42:18;1.17;;;1.13;;
23617;SDS011;18207;32.078;34.818;2022-11-18T11:45:05;1.17;;;1.13;;
23617;SDS011;18207;32.078;34.818;2022-11-18T11:48:00;1.30;;;1.30;;
23617;SDS011;18207;32.078;34.818;2022-11-18T11:50:55;0.90;;;0.90;;
23617;SDS011;18207;32.078;34.818;2022-11-18T11:53:38;1.00;;;1.00;;
23617;SDS011;18207;32.078;34.818;2022-11-18T11:56:37;0.82;;;0.82;;
23617;SDS011;18207;32.078;34.818;2022-11-18T11:59:17;0.75;;;0.75;;
23617;SDS011;18207;32.078;34.818;2022-11-18T12:01:58;0.90;;;0.90;;
23617;SDS011;18207;32.078;34.818;2022-11-18T12:05:19;0.80;;;0.80;;
23617;SDS011;18207;32.078;34.818;2022-11-18T12:08:01;0.88;;;0.88;;
23617;SDS011;18207;32.078;34.818;2022-11-18T12:10:43;0.80;;;0.80;;
23617;SDS011;18207;32.078;34.818;2022-11-18T12:13:29;0.90;;;0.90;;
23617;SDS011;18207;32.078;34.818;2022-11-18T12:16:13;1.10;;;1.08;;
23617;SDS011;18207;32.078;34.818;2022-11-18T12:18:53;1.10;;;1.10;;
23617;SDS011;18207;32.078;34.818;2022-11-18T12:24:33;0.80;;;0.80;;
23617;SDS011;18207;32.078;34.818;2022-11-18T12:30:38;1.85;;;1.58;;
23617;SDS011;18207;32.078;34.818;2022-11-18T12:33:09;1.88;;;1.67;;
23617;SDS011;18207;32.078;34.818;2022-11-18T12:35:45;2.17;;;1.90;;
23617;SDS011;18207;32.078;34.818;2022-11-18T12:38:27;2.63;;;1.92;;
23617;SDS011;18207;32.078;34.818;2022-11-18T12:40:59;2.38;;;1.55;;
23617;SDS011;18207;32.078;34.818;2022-11-18T12:46:49;1.73;;;1.63;;
23617;SDS011;18207;32.078;34.818;2022-11-18T12:52:49;1.10;;;1.10;;
23617;SDS011;18207;32.078;34.818;2022-11-18T12:55:24;1.30;;;1.30;;
23617;SDS011;18207;32.078;34.818;2022-11-18T12:58:00;1.38;;;1.30;;
23617;SDS011;18207;32.078;34.818;2022-11-18T13:00:32;1.00;;;1.00;;
23617;SDS011;18207;32.078;34.818;2022-11-18T13:06:15;1.27;;;1.23;;
23617;SDS011;18207;32.078;34.818;2022-11-18T13:08:53;1.30;;;1.30;;
23617;SDS011;18207;32.078;34.818;2022-11-18T13:11:28;1.48;;;1.38;;
23617;SDS011;18207;32.078;34.818;2022-11-18T13:14:15;1.15;;;1.05;;
23617;SDS011;18207;32.078;34.818;2022-11-18T13:20:20;1.00;;;1.00;;
23617;SDS011;18207;32.078;34.818;2022-11-18T13:22:58;1.13;;;1.10;;
23617;SDS011;18207;32.078;34.818;2022-11-18T13:25:47;1.08;;;1.00;;
23617;SDS011;18207;32.078;34.818;2022-11-18T13:28:22;1.13;;;1.13;;
23617;SDS011;18207;32.078;34.818;2022-11-18T13:31:12;1.00;;;1.00;;
23617;SDS011;18207;32.078;34.818;2022-11-18T13:33:51;0.95;;;0.95;;
23617;SDS011;18207;32.078;34.818;2022-11-18T13:36:23;1.10;;;1.10;;
23617;SDS011;18207;32.078;34.818;2022-11-18T13:38:54;1.00;;;1.00;;
23617;SDS011;18207;32.078;34.818;2022-11-18T13:41:26;1.25;;;1.15;;
23617;SDS011;18207;32.078;34.818;2022-11-18T13:44:11;1.00;;;1.00;;
23617;SDS011;18207;32.078;34.818;2022-11-18T13:46:48;1.23;;;1.23;;
23617;SDS011;18207;32.078;34.818;2022-11-18T13:49:27;1.15;;;1.15;;
23617;SDS011;18207;32.078;34.818;2022-11-18T13:52:18;1.20;;;1.20;;
23617;SDS011;18207;32.078;34.818;2022-11-18T13:54:55;1.42;;;1.33;;
23617;SDS011;18207;32.078;34.818;2022-11-18T13:57:30;1.25;;;1.02;;
23617;SDS011;18207;32.078;34.818;2022-11-18T14:00:04;1.27;;;1.17;;
23617;SDS011;18207;32.078;34.818;2022-11-18T14:02:52;1.00;;;1.00;;
23617;SDS011;18207;32.078;34.818;2022-11-18T14:05:27;1.00;;;1.00;;
23617;SDS011;18207;32.078;34.818;2022-11-18T14:08:05;1.08;;;1.08;;
23617;SDS011;18207;32.078;34.818;2022-11-18T14:10:53;1.20;;;1.15;;
23617;SDS011;18207;32.078;34.818;2022-11-18T14:13:25;1.65;;;1.10;;
23617;SDS011;18207;32.078;34.818;2022-11-18T14:15:59;1.50;;;1.40;;
23617;SDS011;18207;32.078;34.818;2022-11-18T14:18:33;1.02;;;1.02;;
23617;SDS011;18207;32.078;34.818;2022-11-18T14:21:09;1.08;;;1.08;;
23617;SDS011;18207;32.078;34.818;2022-11-18T14:23:43;1.00;;;1.00;;
23617;SDS011;18207;32.078;34.818;2022-11-18T14:26:14;1.15;;;1.15;;
23617;SDS011;18207;32.078;34.818;2022-11-18T14:28:57;1.25;;;1.15;;
23617;SDS011;18207;32.078;34.818;2022-11-18T14:31:29;0.98;;;0.98;;
23617;SDS011;18207;32.078;34.818;2022-11-18T14:34:04;1.25;;;1.20;;
23617;SDS011;18207;32.078;34.818;2022-11-18T14:36:47;0.90;;;0.90;;
23617;SDS011;18207;32.078;34.818;2022-11-18T14:39:23;0.88;;;0.88;;
23617;SDS011;18207;32.078;34.818;2022-11-18T14:41:56;1.00;;;1.00;;
23617;SDS011;18207;32.078;34.818;2022-11-18T14:44:27;0.73;;;0.73;;
23617;SDS011;18207;32.078;34.818;2022-11-18T14:46:59;1.15;;;1.10;;
23617;SDS011;18207;32.078;34.818;2022-11-18T14:49:31;1.00;;;1.00;;
23617;SDS011;18207;32.078;34.818;2022-11-18T14:52:02;0.85;;;0.80;;
23617;SDS011;18207;32.078;34.818;2022-11-18T14:54:34;1.20;;;1.20;;
23617;SDS011;18207;32.078;34.818;2022-11-18T14:57:05;0.95;;;0.95;;
23617;SDS011;18207;32.078;34.818;2022-11-18T14:59:43;1.00;;;1.00;;
23617;SDS011;18207;32.078;34.818;2022-11-18T15:02:15;0.82;;;0.82;;
23617;SDS011;18207;32.078;34.818;2022-11-18T15:04:46;0.95;;;0.95;;
23617;SDS011;18207;32.078;34.818;2022-11-18T15:07:18;0.88;;;0.88;;
23617;SDS011;18207;32.078;34.818;2022-11-18T15:09:51;0.75;;;0.75;;
23617;SDS011;18207;32.078;34.818;2022-11-18T15:12:22;0.98;;;0.98;;
23617;SDS011;18207;32.078;34.818;2022-11-18T15:14:53;1.20;;;1.20;;
23617;SDS011;18207;32.078;34.818;2022-11-18T15:17:23;0.90;;;0.90;;
23617;SDS011;18207;32.078;34.818;2022-11-18T15:19:53;1.00;;;1.00;;
23617;SDS011;18207;32.078;34.818;2022-11-18T15:22:24;1.10;;;1.10;;
23617;SDS011;18207;32.078;34.818;2022-11-18T15:24:57;1.13;;;1.13;;
23617;SDS011;18207;32.078;34.818;2022-11-18T15:27:27;1.00;;;1.00;;
23617;SDS011;18207;32.078;34.818;2022-11-18T15:29:58;2.00;;;1.38;;
23617;SDS011;18207;32.078;34.818;2022-11-18T15:32:29;1.02;;;1.02;;
23617;SDS011;18207;32.078;34.818;2022-11-18T15:35:00;1.02;;;1.02;;
23617;SDS011;18207;32.078;34.818;2022-11-18T15:37:30;1.10;;;1.10;;
23617;SDS011;18207;32.078;34.818;2022-11-18T15:40:03;1.00;;;1.00;;
23617;SDS011;18207;32.078;34.818;2022-11-18T15:42:35;1.20;;;1.17;;
23617;SDS011;18207;32.078;34.818;2022-11-18T15:45:17;1.27;;;1.20;;
23617;SDS011;18207;32.078;34.818;2022-11-18T15:47:50;1.15;;;1.15;;
23617;SDS011;18207;32.078;34.818;2022-11-18T15:50:20;1.02;;;1.02;;
23617;SDS011;18207;32.078;34.818;2022-11-18T15:52:51;1.20;;;1.10;;
23617;SDS011;18207;32.078;34.818;2022-11-18T15:55:23;1.08;;;1.08;;